Time;durP1;ratioP1;P1;durP2;ratioP2;P2;SDS_P1;SDS_P2;PMS_P1;PMS_P2;Temp;Humidity;BMP_temperature;BMP_pressure;BME280_temperature;BME280_humidity;BME280_pressure;Samples;Min_cycle;Max_cycle;Signal;HPM_P1;HPM_P2
2023/07/29 00:00:51;;;;;;;15.18;13.68;;;18.50;99.90;;;;;;5042883;28;20045;-76
2023/07/29 00:03:20;;;;;;;15.55;13.45;;;18.50;99.90;;;;;;5065897;28;20094;-75
2023/07/29 00:05:47;;;;;;;15.50;13.70;;;18.40;99.90;;;;;;5056872;28;20419;-75
2023/07/29 00:08:12;;;;;;;16.13;14.60;;;18.40;99.90;;;;;;5047069;28;20139;-75
2023/07/29 00:10:38;;;;;;;14.82;13.50;;;18.40;99.90;;;;;;5046088;28;20706;-75
2023/07/29 00:13:05;;;;;;;13.80;12.30;;;18.40;99.90;;;;;;5064396;28;20044;-75
2023/07/29 00:15:32;;;;;;;14.75;13.35;;;18.30;99.90;;;;;;5042088;28;20047;-75
2023/07/29 00:17:57;;;;;;;15.73;14.23;;;18.40;99.90;;;;;;5053255;28;20549;-74
2023/07/29 00:20:23;;;;;;;14.07;12.68;;;18.30;99.90;;;;;;5043123;28;20082;-74
2023/07/29 00:22:50;;;;;;;13.68;12.27;;;18.30;99.90;;;;;;5062194;28;20632;-76
2023/07/29 00:25:19;;;;;;;14.52;13.13;;;18.30;99.90;;;;;;5043091;28;20554;-75
2023/07/29 00:27:44;;;;;;;14.38;12.98;;;18.20;99.90;;;;;;5059949;28;20086;-75
2023/07/29 00:30:11;;;;;;;14.57;13.10;;;18.20;99.90;;;;;;5062865;28;20113;-76
2023/07/29 00:32:37;;;;;;;14.27;12.82;;;18.20;99.90;;;;;;5060588;28;20082;-74
2023/07/29 00:35:07;;;;;;;14.70;13.40;;;18.20;99.90;;;;;;5049639;28;20033;-74
2023/07/29 00:37:33;;;;;;;14.95;13.10;;;18.20;99.90;;;;;;5047018;28;20123;-74
2023/07/29 00:39:59;;;;;;;16.70;14.85;;;18.10;99.90;;;;;;5064464;28;20194;-75
2023/07/29 00:42:25;;;;;;;15.63;14.18;;;18.10;99.90;;;;;;5046423;28;20040;-74
2023/07/29 00:44:50;;;;;;;16.17;14.55;;;18.10;99.90;;;;;;5047046;28;20470;-75
2023/07/29 00:47:16;;;;;;;14.50;13.18;;;18.10;99.90;;;;;;5066909;28;20043;-75
2023/07/29 00:49:45;;;;;;;13.90;12.50;;;18.10;99.90;;;;;;5060937;28;20052;-74
2023/07/29 00:52:12;;;;;;;13.23;12.00;;;18.10;99.90;;;;;;5064970;28;20792;-75
2023/07/29 00:54:42;;;;;;;13.30;11.95;;;18.10;99.90;;;;;;5057400;28;20433;-76
2023/07/29 00:57:09;;;;;;;11.68;10.57;;;18.10;99.90;;;;;;5043915;28;20443;-75
2023/07/29 00:59:36;;;;;;;12.82;11.57;;;18.10;99.90;;;;;;5043330;28;20032;-74
2023/07/29 01:02:02;;;;;;;11.23;10.13;;;18.10;99.90;;;;;;5062166;28;20115;-75
2023/07/29 01:04:28;;;;;;;12.10;10.98;;;18.10;99.90;;;;;;5048970;28;20528;-75
2023/07/29 01:07:23;;;;;;;12.73;11.43;;;18.10;99.90;;;;;;5058625;28;20048;-76
2023/07/29 01:09:59;;;;;;;11.40;10.30;;;18.10;99.90;;;;;;5030397;28;20047;-75
2023/07/29 01:12:25;;;;;;;12.40;10.45;;;18.00;99.90;;;;;;5042473;28;20199;-75
2023/07/29 01:15:04;;;;;;;12.60;11.38;;;18.00;99.90;;;;;;5066275;28;20041;-75
2023/07/29 01:17:41;;;;;;;13.37;11.60;;;18.00;99.90;;;;;;5058663;28;20048;-74
2023/07/29 01:20:15;;;;;;;12.27;11.10;;;17.90;99.90;;;;;;5058939;28;20044;-74
2023/07/29 01:22:41;;;;;;;12.73;11.32;;;17.90;99.90;;;;;;5065801;28;20215;-76
2023/07/29 01:25:10;;;;;;;12.10;11.00;;;17.90;99.90;;;;;;5044775;28;20117;-75
2023/07/29 01:27:36;;;;;;;15.32;11.80;;;17.80;99.90;;;;;;5062982;28;20041;-75
2023/07/29 01:30:03;;;;;;;12.32;11.10;;;17.80;99.90;;;;;;5070520;28;20438;-75
2023/07/29 01:32:41;;;;;;;13.00;11.73;;;17.80;99.90;;;;;;5063263;28;20060;-75
2023/07/29 01:35:09;;;;;;;12.27;11.05;;;17.80;99.90;;;;;;5064408;28;20048;-75
2023/07/29 01:37:38;;;;;;;12.05;10.75;;;17.70;99.90;;;;;;5053631;28;20044;-75
2023/07/29 01:40:06;;;;;;;11.80;10.60;;;17.70;99.90;;;;;;5064821;28;20044;-75
2023/07/29 01:42:33;;;;;;;11.98;10.80;;;17.70;99.90;;;;;;5072277;28;20050;-75
2023/07/29 01:44:59;;;;;;;11.55;10.35;;;17.60;99.90;;;;;;5062413;28;20059;-75
2023/07/29 01:47:25;;;;;;;13.93;11.65;;;17.60;99.90;;;;;;5065062;28;20659;-75
2023/07/29 01:49:51;;;;;;;12.75;11.50;;;17.60;99.90;;;;;;5064166;28;20309;-76
2023/07/29 01:52:18;;;;;;;12.73;11.45;;;17.60;99.90;;;;;;5045665;28;20044;-75
2023/07/29 01:54:43;;;;;;;13.23;10.75;;;17.60;99.90;;;;;;5061649;28;20402;-75
2023/07/29 01:57:09;;;;;;;12.10;10.90;;;17.60;99.90;;;;;;5050830;28;20044;-74
2023/07/29 01:59:35;;;;;;;11.30;10.25;;;17.50;99.90;;;;;;5070911;28;20040;-75
2023/07/29 02:02:00;;;;;;;12.30;11.10;;;17.50;99.90;;;;;;5050310;28;20047;-74
2023/07/29 02:04:26;;;;;;;11.90;10.70;;;17.50;99.90;;;;;;5061425;28;20055;-74
2023/07/29 02:06:52;;;;;;;12.90;11.57;;;17.50;99.90;;;;;;5066677;28;20066;-75
2023/07/29 02:09:18;;;;;;;12.00;10.80;;;17.50;99.90;;;;;;5053308;28;20052;-75
2023/07/29 02:11:43;;;;;;;12.63;11.13;;;17.50;99.90;;;;;;5048605;28;20037;-75
2023/07/29 02:14:09;;;;;;;17.17;11.80;;;17.50;99.90;;;;;;5057989;28;20037;-75
2023/07/29 02:16:36;;;;;;;14.18;12.75;;;17.50;99.90;;;;;;5051088;28;20059;-75
2023/07/29 02:19:01;;;;;;;12.00;10.88;;;17.50;99.90;;;;;;5058629;28;20669;-75
2023/07/29 02:21:27;;;;;;;12.15;10.98;;;17.50;99.90;;;;;;5061304;28;20044;-75
2023/07/29 02:23:53;;;;;;;12.88;11.23;;;17.50;99.90;;;;;;5046608;28;20051;-74
2023/07/29 02:26:19;;;;;;;13.27;11.45;;;17.40;99.90;;;;;;5042556;28;20052;-74
2023/07/29 02:28:44;;;;;;;14.25;12.85;;;17.40;99.90;;;;;;5051181;28;20398;-74
2023/07/29 02:31:20;;;;;;;12.50;11.40;;;17.40;99.90;;;;;;5060249;28;20168;-75
2023/07/29 02:33:46;;;;;;;12.35;11.15;;;17.40;99.90;;;;;;5061249;28;20144;-75
2023/07/29 02:36:13;;;;;;;12.38;11.18;;;17.40;99.90;;;;;;5047395;28;20621;-75
2023/07/29 02:38:39;;;;;;;13.25;11.45;;;17.40;99.90;;;;;;5063407;28;20040;-76
2023/07/29 02:41:05;;;;;;;11.32;10.18;;;17.30;99.90;;;;;;5043522;28;20040;-75
2023/07/29 02:43:30;;;;;;;12.52;11.23;;;17.30;99.90;;;;;;5042071;28;20109;-75
2023/07/29 02:45:56;;;;;;;12.32;11.13;;;17.30;99.90;;;;;;5062170;28;20499;-75
2023/07/29 02:48:22;;;;;;;12.52;11.30;;;17.30;99.90;;;;;;5019693;28;20635;-75
2023/07/29 02:50:47;;;;;;;10.98;9.88;;;17.30;99.90;;;;;;5056803;28;20114;-75
2023/07/29 02:53:13;;;;;;;12.38;11.18;;;17.30;99.90;;;;;;5052200;28;20040;-75
2023/07/29 02:55:42;;;;;;;11.52;10.32;;;17.30;99.90;;;;;;5055221;28;20044;-74
2023/07/29 02:58:08;;;;;;;11.52;10.43;;;17.30;99.90;;;;;;5057068;28;20032;-76
2023/07/29 03:00:34;;;;;;;11.40;10.30;;;17.30;99.90;;;;;;5054440;28;20491;-75
2023/07/29 03:03:00;;;;;;;12.15;10.85;;;17.30;99.90;;;;;;5054785;28;20044;-76
2023/07/29 03:05:29;;;;;;;10.73;9.63;;;17.30;99.90;;;;;;5041101;28;20032;-75
2023/07/29 03:07:54;;;;;;;12.77;9.90;;;17.30;99.90;;;;;;5038316;28;20066;-74
2023/07/29 03:10:20;;;;;;;9.98;8.90;;;17.30;99.90;;;;;;5039208;28;20090;-75
2023/07/29 03:12:46;;;;;;;10.75;9.52;;;17.30;99.90;;;;;;5056046;28;20044;-74
2023/07/29 03:15:12;;;;;;;10.52;9.43;;;17.30;99.90;;;;;;5041536;28;20040;-75
2023/07/29 03:17:38;;;;;;;9.52;8.45;;;17.30;99.90;;;;;;5057972;28;20043;-75
2023/07/29 03:20:04;;;;;;;10.05;8.75;;;17.30;99.90;;;;;;5058960;28;20051;-75
2023/07/29 03:22:30;;;;;;;10.60;8.50;;;17.30;99.90;;;;;;5041441;28;20037;-75
2023/07/29 03:24:56;;;;;;;10.82;9.73;;;17.30;99.90;;;;;;5044065;28;20049;-75
2023/07/29 03:27:22;;;;;;;12.40;10.90;;;17.30;99.90;;;;;;5055385;28;20055;-74
2023/07/29 03:29:47;;;;;;;10.25;9.13;;;17.20;99.90;;;;;;5056693;28;20078;-75
2023/07/29 03:32:13;;;;;;;10.65;9.00;;;17.20;99.90;;;;;;5056556;28;20064;-75
2023/07/29 03:34:40;;;;;;;10.18;8.98;;;17.10;99.90;;;;;;5052444;28;20471;-75
2023/07/29 03:37:06;;;;;;;12.38;9.05;;;17.10;99.90;;;;;;5056014;28;20079;-74
2023/07/29 03:39:32;;;;;;;11.13;9.48;;;17.10;99.90;;;;;;5055616;28;20499;-75
2023/07/29 03:41:58;;;;;;;10.73;9.63;;;17.10;99.90;;;;;;5055316;28;20048;-75
2023/07/29 03:44:23;;;;;;;9.07;8.10;;;17.10;99.90;;;;;;5054536;28;20040;-75
2023/07/29 03:46:49;;;;;;;10.20;8.57;;;17.00;99.90;;;;;;5057215;28;20046;-75
2023/07/29 03:49:15;;;;;;;12.18;9.48;;;17.00;99.90;;;;;;5055347;28;20043;-75
2023/07/29 03:51:41;;;;;;;8.85;7.57;;;17.00;99.90;;;;;;5036690;28;20041;-75
2023/07/29 03:54:07;;;;;;;8.52;7.65;;;17.00;99.90;;;;;;5039430;28;20071;-75
2023/07/29 03:56:35;;;;;;;8.60;7.28;;;17.00;99.90;;;;;;5039294;28;20090;-75
2023/07/29 03:59:05;;;;;;;10.32;8.32;;;16.90;99.90;;;;;;5038137;28;20132;-75
2023/07/29 04:01:31;;;;;;;9.55;7.68;;;16.90;99.90;;;;;;5036012;28;20078;-74
2023/07/29 04:03:59;;;;;;;8.13;7.32;;;16.90;99.90;;;;;;5033383;28;20247;-76
2023/07/29 04:06:25;;;;;;;8.80;7.28;;;16.90;99.90;;;;;;5012054;28;20052;-75
2023/07/29 04:08:51;;;;;;;11.02;7.65;;;16.90;99.90;;;;;;5042930;28;20048;-75
2023/07/29 04:11:17;;;;;;;8.48;7.10;;;16.90;99.90;;;;;;5025118;28;20048;-75
2023/07/29 04:13:43;;;;;;;9.63;7.82;;;16.90;99.90;;;;;;5042169;28;20599;-75
2023/07/29 04:16:09;;;;;;;10.60;7.60;;;16.90;99.90;;;;;;5043960;28;21126;-75
2023/07/29 04:18:34;;;;;;;8.85;7.10;;;16.80;99.90;;;;;;5043868;28;20602;-75
2023/07/29 04:21:03;;;;;;;8.07;6.90;;;16.80;99.90;;;;;;5024892;28;20052;-76
2023/07/29 04:23:29;;;;;;;8.27;7.13;;;16.90;99.90;;;;;;5026916;28;20106;-76
2023/07/29 04:25:55;;;;;;;7.13;6.43;;;16.90;99.90;;;;;;5027076;28;20064;-75
2023/07/29 04:28:21;;;;;;;8.00;7.15;;;16.90;99.90;;;;;;5038932;28;20055;-75
2023/07/29 04:30:47;;;;;;;9.40;6.57;;;16.90;99.90;;;;;;5040706;28;20156;-75
2023/07/29 04:33:12;;;;;;;8.45;5.68;;;16.90;99.90;;;;;;5040192;28;20108;-75
2023/07/29 04:35:38;;;;;;;7.65;5.75;;;16.90;99.90;;;;;;5052418;28;20090;-74
2023/07/29 04:38:04;;;;;;;8.25;6.80;;;16.90;99.90;;;;;;5043666;28;20491;-75
2023/07/29 04:40:33;;;;;;;8.02;6.15;;;16.90;99.90;;;;;;5059287;28;20497;-75
2023/07/29 04:43:02;;;;;;;10.85;5.88;;;16.90;99.90;;;;;;5044846;28;20040;-75
2023/07/29 04:45:31;;;;;;;9.27;5.90;;;16.90;99.90;;;;;;5029434;28;20048;-75
2023/07/29 04:47:58;;;;;;;8.13;5.65;;;16.90;99.90;;;;;;5059926;28;20381;-75
2023/07/29 04:50:24;;;;;;;6.60;5.05;;;16.90;99.90;;;;;;5041076;28;20041;-75
2023/07/29 04:52:50;;;;;;;7.72;4.75;;;16.90;99.90;;;;;;5058445;28;20059;-75
2023/07/29 04:55:16;;;;;;;8.93;5.07;;;17.00;99.90;;;;;;5053514;28;20569;-77
2023/07/29 04:57:41;;;;;;;6.35;4.95;;;16.90;99.90;;;;;;5051905;28;20131;-74
2023/07/29 05:00:10;;;;;;;6.95;4.47;;;16.90;99.90;;;;;;5057354;28;20444;-75
2023/07/29 05:02:36;;;;;;;6.47;4.80;;;17.00;99.90;;;;;;5043647;28;20057;-75
2023/07/29 05:05:02;;;;;;;6.43;5.05;;;17.00;99.90;;;;;;5067583;28;20289;-75
2023/07/29 05:07:28;;;;;;;6.20;4.10;;;17.00;99.90;;;;;;5066626;28;20043;-74
2023/07/29 05:09:54;;;;;;;7.78;5.03;;;17.00;99.90;;;;;;5046626;28;20037;-75
2023/07/29 05:12:19;;;;;;;5.50;4.07;;;17.00;99.90;;;;;;5059318;28;20045;-75
2023/07/29 05:14:45;;;;;;;6.97;4.60;;;17.00;99.90;;;;;;5061125;28;20072;-75
2023/07/29 05:17:11;;;;;;;5.82;4.18;;;17.00;99.90;;;;;;5058708;28;20056;-75
2023/07/29 05:19:37;;;;;;;6.38;4.80;;;17.00;99.90;;;;;;5043060;28;20504;-76
2023/07/29 05:22:03;;;;;;;5.30;4.13;;;17.00;99.90;;;;;;5064205;28;20387;-75
2023/07/29 05:24:29;;;;;;;6.68;4.03;;;17.00;99.90;;;;;;5042225;28;20037;-75
2023/07/29 05:26:55;;;;;;;6.43;4.00;;;17.00;99.90;;;;;;5060246;28;20055;-75
2023/07/29 05:29:20;;;;;;;5.10;3.65;;;17.00;99.90;;;;;;5061444;28;20126;-75
2023/07/29 05:31:46;;;;;;;5.68;4.15;;;17.00;99.90;;;;;;5060712;28;20127;-77
2023/07/29 05:34:12;;;;;;;7.32;4.07;;;17.00;99.90;;;;;;5056634;28;20119;-75
2023/07/29 05:36:39;;;;;;;7.00;4.00;;;17.10;99.90;;;;;;5046771;28;20044;-76
2023/07/29 05:39:05;;;;;;;6.13;3.88;;;17.10;99.90;;;;;;5062938;28;20056;-75
2023/07/29 05:41:30;;;;;;;6.75;3.95;;;17.10;99.90;;;;;;5049911;28;20081;-74
2023/07/29 05:43:56;;;;;;;6.10;4.03;;;17.10;99.90;;;;;;5063763;28;20093;-77
2023/07/29 05:46:22;;;;;;;6.10;3.90;;;17.10;99.90;;;;;;5055460;28;20068;-76
2023/07/29 05:48:47;;;;;;;7.85;4.38;;;17.10;99.90;;;;;;5058267;28;20502;-76
2023/07/29 05:51:13;;;;;;;6.72;4.78;;;17.10;99.90;;;;;;5063140;28;20055;-76
2023/07/29 05:53:39;;;;;;;7.57;4.57;;;17.10;99.90;;;;;;5068762;28;20036;-76
2023/07/29 05:56:08;;;;;;;9.00;4.68;;;17.10;99.90;;;;;;5021382;28;20511;-75
2023/07/29 05:58:34;;;;;;;6.75;4.93;;;17.10;99.90;;;;;;5025299;28;20041;-76
2023/07/29 06:01:02;;;;;;;6.07;4.65;;;17.10;99.90;;;;;;5026718;28;20079;-76
2023/07/29 06:03:28;;;;;;;9.05;5.13;;;17.20;99.90;;;;;;5025643;28;20056;-76
2023/07/29 06:05:54;;;;;;;6.78;5.07;;;17.20;99.90;;;;;;5024846;28;20044;-76
2023/07/29 06:08:20;;;;;;;8.02;4.85;;;17.20;99.90;;;;;;5025432;28;20087;-75
2023/07/29 06:10:45;;;;;;;8.02;5.03;;;17.20;99.90;;;;;;5017173;28;20480;-76
2023/07/29 06:13:11;;;;;;;9.02;5.70;;;17.20;99.90;;;;;;5027524;28;20103;-76
2023/07/29 06:15:37;;;;;;;9.77;6.00;;;17.20;99.90;;;;;;5005910;28;20036;-76
2023/07/29 06:18:03;;;;;;;8.95;5.40;;;17.30;99.90;;;;;;5034442;28;20088;-76
2023/07/29 06:20:29;;;;;;;8.30;5.32;;;17.20;99.90;;;;;;5028727;28;20537;-76
2023/07/29 06:22:55;;;;;;;8.10;5.85;;;17.30;99.90;;;;;;5031573;28;20090;-77
2023/07/29 06:25:21;;;;;;;8.38;5.95;;;17.30;99.90;;;;;;5025682;28;20215;-76
2023/07/29 06:27:47;;;;;;;10.65;6.95;;;17.30;99.90;;;;;;5009769;28;20111;-76
2023/07/29 06:30:12;;;;;;;11.77;6.35;;;17.40;99.90;;;;;;5024131;28;20057;-77
2023/07/29 06:32:38;;;;;;;7.15;5.57;;;17.50;99.90;;;;;;5011087;28;20539;-75
2023/07/29 06:35:04;;;;;;;8.73;6.30;;;17.60;99.90;;;;;;5042492;28;20133;-75
2023/07/29 06:37:30;;;;;;;9.80;6.25;;;17.70;99.90;;;;;;5063944;28;20048;-75
2023/07/29 06:39:56;;;;;;;10.70;6.85;;;17.70;99.90;;;;;;5070270;28;20055;-75
2023/07/29 06:42:22;;;;;;;8.80;5.82;;;17.80;99.90;;;;;;5057130;28;20044;-75
2023/07/29 06:44:47;;;;;;;10.50;6.30;;;17.80;99.90;;;;;;5061426;28;20071;-78
2023/07/29 06:47:13;;;;;;;9.07;6.38;;;17.90;99.90;;;;;;5059952;28;20395;-76
2023/07/29 06:49:39;;;;;;;11.20;6.57;;;17.90;99.90;;;;;;5057961;28;20061;-76
2023/07/29 06:52:05;;;;;;;8.63;5.93;;;17.90;99.90;;;;;;5037361;28;20048;-76
2023/07/29 06:54:30;;;;;;;9.45;5.55;;;17.90;99.90;;;;;;5059137;28;20520;-75
2023/07/29 06:56:56;;;;;;;11.38;7.00;;;18.00;99.90;;;;;;5049344;28;20463;-76
2023/07/29 06:59:24;;;;;;;10.48;7.22;;;18.00;99.90;;;;;;5051809;28;20051;-75
2023/07/29 07:01:50;;;;;;;10.98;8.05;;;18.00;99.90;;;;;;5045983;28;20047;-76
2023/07/29 07:04:15;;;;;;;10.63;7.20;;;18.10;99.90;;;;;;5061791;28;20064;-78
2023/07/29 07:06:41;;;;;;;16.17;8.32;;;18.10;99.90;;;;;;5065478;28;20190;-75
2023/07/29 07:09:07;;;;;;;12.95;8.18;;;18.20;99.90;;;;;;5043998;28;20044;-76
2023/07/29 07:11:33;;;;;;;11.18;8.18;;;18.20;99.90;;;;;;5049187;28;20045;-77
2023/07/29 07:14:00;;;;;;;11.80;7.65;;;18.30;99.90;;;;;;5060272;28;20048;-76
2023/07/29 07:16:25;;;;;;;13.55;9.30;;;18.50;99.90;;;;;;5043328;28;20137;-76
2023/07/29 07:18:51;;;;;;;11.80;8.48;;;18.50;99.90;;;;;;5046572;28;20059;-76
2023/07/29 07:21:17;;;;;;;9.98;8.60;;;18.60;99.90;;;;;;5044526;28;20126;-76
2023/07/29 07:23:43;;;;;;;12.73;8.50;;;18.70;99.90;;;;;;5046785;28;20221;-75
2023/07/29 07:26:09;;;;;;;10.25;7.30;;;18.70;99.90;;;;;;5053649;28;20041;-76
2023/07/29 07:28:34;;;;;;;10.63;7.93;;;18.70;99.90;;;;;;5058229;28;20516;-76
2023/07/29 07:31:00;;;;;;;9.77;7.68;;;18.70;99.90;;;;;;5042222;28;20041;-76
2023/07/29 07:33:26;;;;;;;11.35;7.32;;;18.70;99.90;;;;;;5047644;28;20037;-76
2023/07/29 07:35:52;;;;;;;10.13;6.47;;;18.70;99.90;;;;;;5045403;28;20066;-76
2023/07/29 07:38:17;;;;;;;8.85;7.05;;;18.80;99.90;;;;;;5041916;28;20125;-76
2023/07/29 07:40:58;;;;;;;11.15;7.60;;;18.80;99.90;;;;;;5046701;28;20532;-76
2023/07/29 07:43:24;;;;;;;9.75;7.45;;;18.90;99.90;;;;;;5044536;28;20411;-76
2023/07/29 07:45:50;;;;;;;11.32;8.05;;;18.90;99.90;;;;;;5067640;28;20055;-76
2023/07/29 07:48:16;;;;;;;12.75;7.80;;;19.00;99.90;;;;;;5069195;28;20052;-77
2023/07/29 07:50:43;;;;;;;10.65;8.20;;;19.00;99.90;;;;;;5043248;28;20044;-77
2023/07/29 07:53:08;;;;;;;9.95;8.18;;;19.00;99.90;;;;;;5058009;28;20041;-76
2023/07/29 07:55:34;;;;;;;8.80;7.53;;;19.00;99.90;;;;;;5062957;28;20040;-76
2023/07/29 07:58:00;;;;;;;8.48;7.50;;;19.00;99.90;;;;;;5060483;28;20040;-76
2023/07/29 08:00:26;;;;;;;10.05;7.05;;;19.00;99.90;;;;;;5057656;28;20076;-76
2023/07/29 08:02:51;;;;;;;10.32;6.95;;;19.10;99.90;;;;;;5041936;28;20089;-76
2023/07/29 08:05:18;;;;;;;10.50;6.68;;;19.10;99.90;;;;;;5055890;28;20194;-76
2023/07/29 08:07:43;;;;;;;8.40;6.43;;;19.10;99.90;;;;;;5056640;28;20508;-77
2023/07/29 08:10:09;;;;;;;9.82;6.25;;;19.20;99.90;;;;;;5044172;28;20182;-77
2023/07/29 08:12:35;;;;;;;10.23;6.00;;;19.20;99.90;;;;;;5041619;28;20033;-76
2023/07/29 08:15:01;;;;;;;8.13;5.72;;;19.20;99.90;;;;;;5055930;28;20043;-77
2023/07/29 08:17:27;;;;;;;10.77;6.05;;;19.20;99.90;;;;;;5059885;28;20131;-76
2023/07/29 08:19:52;;;;;;;9.30;6.47;;;19.20;99.90;;;;;;5049104;28;20552;-76
2023/07/29 08:22:18;;;;;;;7.30;5.38;;;19.30;99.90;;;;;;5065131;28;20071;-76
2023/07/29 08:24:44;;;;;;;9.48;5.95;;;19.40;99.90;;;;;;5063425;28;20040;-77
2023/07/29 08:27:10;;;;;;;8.90;6.05;;;19.50;99.90;;;;;;5045545;28;20482;-77
2023/07/29 08:29:36;;;;;;;8.85;5.75;;;19.80;99.90;;;;;;5062641;28;20036;-76
2023/07/29 08:32:02;;;;;;;9.75;6.25;;;20.00;99.90;;;;;;5075964;28;20559;-76
2023/07/29 08:34:28;;;;;;;8.70;5.35;;;20.20;99.90;;;;;;5042467;28;20911;-76
2023/07/29 08:36:53;;;;;;;6.90;5.47;;;20.30;99.90;;;;;;5061915;28;20048;-77
2023/07/29 08:39:19;;;;;;;8.18;4.90;;;20.40;99.90;;;;;;5067417;28;20051;-76
2023/07/29 08:42:04;;;;;;;6.53;4.22;;;20.40;99.90;;;;;;5045410;28;20185;-76
2023/07/29 08:44:38;;;;;;;7.15;4.18;;;20.30;99.90;;;;;;5047191;28;20048;-76
2023/07/29 08:47:05;;;;;;;8.25;4.47;;;20.20;99.90;;;;;;5043654;28;20123;-76
2023/07/29 08:49:32;;;;;;;6.60;3.88;;;20.20;99.90;;;;;;5059770;28;20048;-76
2023/07/29 08:51:57;;;;;;;6.88;4.68;;;20.20;99.90;;;;;;5049114;28;20789;-76
2023/07/29 08:54:23;;;;;;;6.30;4.00;;;20.20;99.90;;;;;;5056725;28;20068;-76
2023/07/29 08:56:50;;;;;;;7.13;3.97;;;20.20;99.90;;;;;;5052513;28;20391;-76
2023/07/29 08:59:17;;;;;;;8.13;4.07;;;20.20;99.90;;;;;;5044658;28;20037;-76
2023/07/29 09:01:47;;;;;;;7.88;4.20;;;20.20;99.90;;;;;;5045657;28;20479;-76
2023/07/29 09:04:17;;;;;;;8.45;4.53;;;20.20;99.90;;;;;;5044712;28;20102;-76
2023/07/29 09:06:44;;;;;;;8.63;4.57;;;20.30;99.90;;;;;;5067004;28;20043;-75
2023/07/29 09:09:10;;;;;;;7.07;4.57;;;20.50;99.90;;;;;;5061311;28;20044;-76
2023/07/29 09:11:38;;;;;;;7.20;4.72;;;20.70;99.90;;;;;;5048734;28;20040;-76
2023/07/29 09:14:04;;;;;;;7.15;4.00;;;20.90;99.90;;;;;;5050024;28;20359;-77
2023/07/29 09:16:30;;;;;;;8.23;4.35;;;21.10;99.90;;;;;;5065242;28;20080;-76
2023/07/29 09:19:00;;;;;;;5.40;3.22;;;21.30;99.90;;;;;;5047857;28;20046;-76
2023/07/29 09:21:28;;;;;;;6.30;3.75;;;21.30;99.90;;;;;;5064855;28;20062;-76
2023/07/29 09:23:54;;;;;;;6.22;3.65;;;21.50;99.90;;;;;;5056785;28;20406;-76
2023/07/29 09:26:27;;;;;;;6.47;3.80;;;21.50;99.90;;;;;;5065912;28;20384;-76
2023/07/29 09:28:54;;;;;;;6.85;3.72;;;21.60;99.90;;;;;;5064274;28;20037;-76
2023/07/29 09:31:22;;;;;;;5.90;4.05;;;21.60;99.90;;;;;;5061042;28;20045;-76
2023/07/29 09:33:49;;;;;;;6.43;4.18;;;21.50;99.90;;;;;;5041965;28;20083;-76
2023/07/29 09:36:15;;;;;;;6.55;3.80;;;21.60;99.90;;;;;;5075033;28;20079;-75
2023/07/29 09:38:41;;;;;;;6.88;4.25;;;21.70;99.90;;;;;;5045243;28;20056;-76
2023/07/29 09:41:07;;;;;;;8.05;3.75;;;21.90;99.90;;;;;;5066374;28;20049;-75
2023/07/29 09:43:34;;;;;;;5.90;3.22;;;22.00;99.90;;;;;;5061472;28;20056;-76
2023/07/29 09:46:01;;;;;;;5.80;2.90;;;22.10;99.90;;;;;;5062901;28;20463;-76
2023/07/29 09:48:28;;;;;;;7.07;3.03;;;22.20;99.90;;;;;;5042348;28;20044;-76
2023/07/29 09:50:55;;;;;;;6.57;3.40;;;22.30;99.90;;;;;;5048980;28;20693;-76
2023/07/29 09:53:21;;;;;;;5.60;2.60;;;22.40;99.90;;;;;;5044377;28;20045;-75
2023/07/29 09:55:50;;;;;;;6.70;2.75;;;22.40;99.90;;;;;;5049675;28;20058;-76
2023/07/29 09:58:26;;;;;;;7.28;3.10;;;22.50;99.90;;;;;;5038047;28;20036;-75
2023/07/29 10:00:55;;;;;;;5.97;2.33;;;22.60;99.90;;;;;;5048049;28;20075;-76
2023/07/29 10:03:22;;;;;;;7.60;2.92;;;22.60;99.90;;;;;;5060545;28;20049;-75
2023/07/29 10:05:51;;;;;;;6.47;2.17;;;22.40;99.90;;;;;;5062421;28;20044;-75
2023/07/29 10:08:18;;;;;;;4.97;2.55;;;22.30;99.90;;;;;;5069885;28;20577;-76
2023/07/29 10:10:45;;;;;;;7.05;3.03;;;22.30;99.90;;;;;;5044117;28;20068;-76
2023/07/29 10:13:11;;;;;;;6.72;2.50;;;22.10;99.90;;;;;;5060400;28;20063;-75
2023/07/29 10:15:37;;;;;;;5.65;2.50;;;22.10;99.90;;;;;;5060765;28;20154;-76
2023/07/29 10:18:04;;;;;;;4.97;1.88;;;22.10;99.90;;;;;;5047198;28;20121;-76
2023/07/29 10:20:32;;;;;;;4.82;2.17;;;22.10;99.90;;;;;;5047280;28;20052;-76
2023/07/29 10:23:00;;;;;;;4.18;2.30;;;22.10;99.90;;;;;;5058184;28;20059;-76
2023/07/29 10:25:38;;;;;;;3.78;1.88;;;22.00;99.90;;;;;;5056983;28;20048;-75
2023/07/29 10:28:11;;;;;;;4.57;2.25;;;21.90;99.90;;;;;;5041828;28;20040;-76
2023/07/29 10:30:38;;;;;;;4.63;2.05;;;21.70;99.90;;;;;;5043061;28;20538;-76
2023/07/29 10:33:05;;;;;;;5.03;2.40;;;21.60;99.90;;;;;;5044610;28;20048;-76
2023/07/29 10:35:35;;;;;;;5.82;2.30;;;21.70;99.90;;;;;;5058545;28;20423;-76
2023/07/29 10:38:05;;;;;;;4.30;2.08;;;21.80;99.90;;;;;;5061590;28;20044;-76
2023/07/29 10:40:50;;;;;;;5.68;2.00;;;21.80;99.90;;;;;;5044780;28;20137;-76
2023/07/29 10:43:24;;;;;;;4.57;2.80;;;21.70;99.90;;;;;;5057471;28;20041;-76
2023/07/29 10:45:50;;;;;;;5.97;3.10;;;21.50;99.90;;;;;;5063737;28;20495;-77
2023/07/29 10:48:40;;;;;;;6.50;3.30;;;21.40;99.90;;;;;;5057024;28;20044;-76
2023/07/29 10:51:29;;;;;;;;;;;21.30;99.90;;;;;;5054915;28;20037;-77
2023/07/29 10:54:11;;;;;;;4.60;3.13;;;21.10;99.90;;;;;;5043399;28;19927;-77
2023/07/29 10:56:41;;;;;;;5.18;3.05;;;21.00;99.90;;;;;;5041186;28;20081;-77
2023/07/29 10:59:17;;;;;;;;;;;21.00;99.90;;;;;;5047538;28;20056;-79
2023/07/29 11:02:13;;;;;;;9.18;2.30;;;20.90;99.90;;;;;;5057992;28;19924;-75
2023/07/29 11:04:57;;;;;;;6.40;2.45;;;20.60;99.90;;;;;;5058913;28;20237;-76
2023/07/29 11:07:26;;;;;;;6.03;2.40;;;20.20;99.90;;;;;;5056259;28;20774;-76
2023/07/29 11:09:59;;;;;;;3.78;2.20;;;20.00;99.90;;;;;;5024188;28;20380;-77
2023/07/29 11:12:47;;;;;;;;;;;19.90;99.90;;;;;;5041364;28;20076;-76
2023/07/29 11:15:14;;;;;;;4.68;2.60;;;19.80;99.90;;;;;;5060384;28;20505;-76
2023/07/29 11:17:41;;;;;;;4.57;3.20;;;19.80;99.90;;;;;;5039905;28;20498;-77
2023/07/29 11:20:08;;;;;;;5.45;3.13;;;19.90;99.90;;;;;;5060726;28;20044;-76
2023/07/29 11:22:34;;;;;;;5.93;3.53;;;20.00;99.90;;;;;;5053804;28;20244;-76
2023/07/29 11:25:00;;;;;;;6.50;3.70;;;20.00;99.90;;;;;;5064679;28;20051;-77
2023/07/29 11:27:26;;;;;;;7.55;4.20;;;20.00;99.90;;;;;;5056073;28;20419;-75
2023/07/29 11:30:08;;;;;;;8.95;4.60;;;20.20;99.90;;;;;;5046001;28;20048;-75
2023/07/29 11:32:35;;;;;;;8.23;4.70;;;20.40;99.90;;;;;;5060492;28;20139;-76
2023/07/29 11:35:09;;;;;;;6.70;4.22;;;20.60;99.90;;;;;;5041521;28;20055;-76
2023/07/29 11:37:37;;;;;;;7.00;4.18;;;20.50;99.90;;;;;;5064535;28;20697;-76
2023/07/29 11:40:05;;;;;;;6.63;4.38;;;20.50;99.90;;;;;;5042371;28;20040;-76
2023/07/29 11:42:35;;;;;;;6.00;3.47;;;20.50;99.90;;;;;;5056871;28;20036;-77
2023/07/29 11:45:03;;;;;;;10.40;4.60;;;20.50;99.90;;;;;;5051225;28;20290;-76
2023/07/29 11:47:29;;;;;;;9.18;4.10;;;20.50;99.90;;;;;;5043242;28;20538;-75
2023/07/29 11:49:59;;;;;;;8.05;4.18;;;20.60;99.90;;;;;;5042710;28;20551;-76
2023/07/29 11:52:24;;;;;;;;;;;20.60;99.90;;;;;;5057660;28;20126;-75
2023/07/29 11:54:50;;;;;;;6.93;3.60;;;20.60;99.90;;;;;;5066362;28;20367;-77
2023/07/29 11:57:18;;;;;;;7.10;3.58;;;20.60;99.90;;;;;;5062015;28;20099;-76
2023/07/29 11:59:44;;;;;;;6.32;3.25;;;20.60;99.90;;;;;;5041321;28;20128;-76
2023/07/29 12:02:12;;;;;;;6.20;3.03;;;20.60;99.90;;;;;;5037857;28;20398;-76
2023/07/29 12:04:39;;;;;;;6.40;3.42;;;20.80;99.90;;;;;;5051656;28;20369;-77
2023/07/29 12:07:05;;;;;;;6.80;3.70;;;20.90;99.90;;;;;;5063398;28;20028;-76
2023/07/29 12:09:31;;;;;;;5.57;3.17;;;21.20;99.90;;;;;;5041562;28;20098;-76
2023/07/29 12:11:58;;;;;;;4.05;2.70;;;21.30;99.90;;;;;;5064538;28;20387;-76
2023/07/29 12:14:28;;;;;;;6.15;3.08;;;21.40;99.90;;;;;;5046206;28;20055;-76
2023/07/29 12:16:53;;;;;;;;;;;21.50;99.90;;;;;;5085672;28;20123;-76
2023/07/29 12:19:21;;;;;;;5.90;3.65;;;21.70;99.90;;;;;;5047446;28;20352;-77
2023/07/29 12:21:48;;;;;;;4.63;2.53;;;21.90;99.90;;;;;;5061251;28;20048;-77
2023/07/29 12:24:14;;;;;;;6.10;3.53;;;22.00;99.90;;;;;;5051790;28;20109;-77
2023/07/29 12:26:43;;;;;;;5.50;3.13;;;22.00;99.90;;;;;;5074380;28;20045;-77
2023/07/29 12:29:14;;;;;;;7.20;3.65;;;21.90;99.90;;;;;;5059710;28;20480;-77
2023/07/29 12:31:40;;;;;;;6.13;3.50;;;21.80;99.90;;;;;;5063983;28;20503;-76
2023/07/29 12:34:06;;;;;;;6.45;3.45;;;21.80;99.90;;;;;;5066941;28;20041;-77
2023/07/29 12:36:49;;;;;;;7.28;3.50;;;22.00;99.90;;;;;;5042557;28;20094;-78
2023/07/29 12:39:23;;;;;;;6.28;2.85;;;22.30;99.90;;;;;;5052525;28;20516;-77
2023/07/29 12:41:51;;;;;;;7.72;2.50;;;22.60;99.90;;;;;;5067756;28;20033;-77